Time;durP1;ratioP1;P1;durP2;ratioP2;P2;SDS_P1;SDS_P2;PMS_P1;PMS_P2;Temp;Humidity;BMP_temperature;BMP_pressure;BME280_temperature;BME280_humidity;BME280_pressure;Samples;Min_cycle;Max_cycle;Signal;HPM_P1;HPM_P2
2021/04/16 00:00:52;;;;;;;2.35;1.73;;;3.10;99.90;;;2.77;84.39;103099.75;5011060;28;20392;-71
2021/04/16 00:03:19;;;;;;;4.60;1.98;;;3.10;99.90;;;2.82;84.69;103093.13;5016705;28;20029;-71
2021/04/16 00:05:46;;;;;;;3.35;1.88;;;3.10;99.90;;;2.79;84.64;103097.84;5006504;28;20385;-71
2021/04/16 00:08:24;;;;;;;3.92;1.63;;;3.10;99.90;;;2.74;85.04;103091.88;5016656;28;20033;-70
2021/04/16 00:10:56;;;;;;;2.22;1.63;;;3.00;99.90;;;2.73;85.02;103092.81;5011852;28;20051;-72
2021/04/16 00:13:24;;;;;;;6.28;2.40;;;3.00;99.90;;;2.68;85.35;103082.38;5008085;28;20034;-71
2021/04/16 00:15:50;;;;;;;3.10;1.77;;;3.00;99.90;;;2.64;85.20;103093.41;5011408;28;20048;-72
2021/04/16 00:18:27;;;;;;;2.55;1.73;;;2.90;99.90;;;2.67;84.64;103083.31;5010233;28;20040;-74
2021/04/16 00:20:55;;;;;;;2.83;1.55;;;2.90;99.90;;;2.76;84.64;103081.88;5008372;28;20048;-70
2021/04/16 00:23:21;;;;;;;1.75;1.38;;;3.00;99.90;;;2.57;85.16;103078.59;4995844;28;20080;-72
2021/04/16 00:25:47;;;;;;;2.72;1.77;;;2.90;99.90;;;2.65;84.84;103073.63;5014121;28;20095;-68
2021/04/16 00:28:14;;;;;;;4.15;1.85;;;2.90;99.90;;;2.60;85.14;103073.06;5036897;28;20030;-71
2021/04/16 00:30:49;;;;;;;1.95;1.40;;;2.80;99.90;;;2.55;84.80;103074.19;5017186;28;20037;-71
2021/04/16 00:33:15;;;;;;;2.45;1.73;;;2.80;99.90;;;2.50;85.23;103070.91;5019531;28;20033;-72
2021/04/16 00:35:42;;;;;;;4.18;1.50;;;2.80;99.90;;;2.44;85.68;103068.59;5021665;28;20092;-71
2021/04/16 00:38:10;;;;;;;2.78;1.48;;;2.80;99.90;;;2.49;85.76;103069.16;5015403;28;20040;-69
2021/04/16 00:40:43;;;;;;;1.88;1.30;;;2.80;99.90;;;2.48;86.17;103064.75;5016466;28;20029;-70
2021/04/16 00:43:12;;;;;;;3.30;1.52;;;2.70;99.90;;;2.47;85.94;103071.09;5007099;28;20029;-70
2021/04/16 00:45:40;;;;;;;2.83;1.67;;;2.70;99.90;;;2.43;86.43;103066.88;5020132;28;20037;-73
2021/04/16 00:48:30;;;;;;;4.85;1.65;;;2.70;99.90;;;2.34;86.49;103058.50;5017048;28;20040;-70
2021/04/16 00:51:00;;;;;;;2.53;1.63;;;2.60;99.90;;;2.59;86.07;103063.25;5019641;28;20038;-70
2021/04/16 00:53:26;;;;;;;3.05;2.13;;;2.70;99.90;;;2.45;85.77;103062.28;4994205;28;20030;-71
2021/04/16 00:55:53;;;;;;;3.03;1.50;;;2.70;99.90;;;2.45;86.20;103062.28;4999202;28;20049;-70
2021/04/16 00:58:24;;;;;;;2.45;1.80;;;2.70;99.90;;;2.38;86.79;103060.88;5001622;28;20090;-73
2021/04/16 01:00:55;;;;;;;3.45;1.95;;;2.60;99.90;;;2.42;86.98;103057.06;5017140;28;20034;-71
2021/04/16 01:03:21;;;;;;;3.05;1.65;;;2.60;99.90;;;2.32;87.09;103053.22;5009315;28;20412;-70
2021/04/16 01:05:47;;;;;;;2.10;1.33;;;2.60;99.90;;;2.41;86.86;103049.97;5009313;28;20042;-73
2021/04/16 01:08:14;;;;;;;2.25;1.40;;;2.60;99.90;;;2.40;87.14;103053.59;5010821;28;20041;-71
2021/04/16 01:10:40;;;;;;;5.20;1.65;;;2.60;99.90;;;2.35;87.39;103050.34;5014069;28;20029;-74
2021/04/16 01:13:07;;;;;;;3.88;1.48;;;2.60;99.90;;;2.37;87.09;103047.56;5012482;28;20048;-72
2021/04/16 01:15:38;;;;;;;2.28;1.60;;;2.60;99.90;;;2.34;87.50;103050.44;5013934;28;20136;-72
2021/04/16 01:18:35;;;;;;;3.38;1.40;;;2.60;99.90;;;2.33;87.46;103044.19;5022542;28;20021;-68
2021/04/16 01:21:07;;;;;;;1.85;1.55;;;2.50;99.90;;;2.26;88.20;103050.88;5018931;28;20060;-73
2021/04/16 01:23:45;;;;;;;2.65;1.67;;;2.50;99.90;;;2.31;87.95;103040.72;5006567;28;20045;-74
2021/04/16 01:26:16;;;;;;;6.88;1.60;;;2.60;99.90;;;2.35;87.87;103050.34;5019610;28;20085;-73
2021/04/16 01:28:42;;;;;;;2.08;1.40;;;2.50;99.90;;;2.31;88.28;103042.56;5008008;28;20026;-74
2021/04/16 01:31:17;;;;;;;2.58;1.70;;;2.50;99.90;;;2.33;87.97;103046.88;5014871;28;20099;-71
2021/04/16 01:33:45;;;;;;;2.10;1.48;;;2.60;99.90;;;2.19;88.77;103050.41;5022609;28;20388;-73
2021/04/16 01:36:16;;;;;;;5.63;1.77;;;2.50;99.90;;;2.14;89.62;103046.28;5024028;28;20057;-73
2021/04/16 01:38:44;;;;;;;2.95;1.50;;;2.50;99.90;;;2.14;89.67;103051.66;5025669;28;20025;-71
2021/04/16 01:41:11;;;;;;;3.70;1.50;;;2.50;99.90;;;2.14;89.99;103057.00;5000147;28;20046;-72
2021/04/16 01:43:41;;;;;;;4.32;2.08;;;2.50;99.90;;;2.27;89.78;103052.63;5013010;28;20038;-73
2021/04/16 01:46:15;;;;;;;5.30;1.55;;;2.50;99.90;;;2.28;90.44;103051.66;5026165;28;20026;-72
2021/04/16 01:48:53;;;;;;;1.73;1.42;;;2.50;99.90;;;2.26;90.44;103050.88;5022290;28;20041;-67
2021/04/16 01:51:27;;;;;;;4.10;1.77;;;2.50;99.90;;;2.32;89.94;103052.34;5023833;28;20041;-71
2021/04/16 01:54:24;;;;;;;;;;;2.50;99.90;;;2.24;90.18;103047.44;5019400;28;20034;-70
2021/04/16 01:56:57;;;;;;;2.67;1.40;;;2.50;99.90;;;2.14;90.54;103040.91;5015532;28;19987;-70
2021/04/16 01:59:28;;;;;;;2.72;1.85;;;2.40;99.90;;;2.19;90.81;103038.78;5024088;28;20056;-70
2021/04/16 02:01:55;;;;;;;3.17;1.40;;;2.40;99.90;;;2.16;90.50;103044.34;5023937;28;20243;-72
2021/04/16 02:04:22;;;;;;;2.20;1.67;;;2.30;99.90;;;2.13;91.00;103040.03;5018093;28;20072;-71
2021/04/16 02:06:50;;;;;;;5.28;1.70;;;2.30;99.90;;;2.14;90.89;103043.59;5013085;28;20030;-71
2021/04/16 02:09:28;;;;;;;2.03;1.65;;;2.40;99.90;;;2.10;91.31;103044.72;5004511;28;20463;-74
2021/04/16 02:11:55;;;;;;;3.80;1.70;;;2.40;99.90;;;2.05;91.81;103038.72;5007249;28;20046;-71
2021/04/16 02:14:30;;;;;;;3.35;1.45;;;2.40;99.90;;;2.08;91.28;103042.13;5009005;28;20038;-70
2021/04/16 02:17:01;;;;;;;2.42;1.60;;;2.40;99.90;;;1.90;92.30;103042.34;5014213;28;20518;-73
2021/04/16 02:19:27;;;;;;;5.18;1.80;;;2.40;99.90;;;1.98;92.57;103032.00;5025159;28;21626;-72
2021/04/16 02:21:53;;;;;;;4.13;1.70;;;2.30;99.90;;;2.00;92.20;103032.78;5006532;28;20121;-73
2021/04/16 02:24:20;;;;;;;2.20;1.40;;;2.30;99.90;;;1.96;91.88;103041.97;5018886;28;20037;-63
2021/04/16 02:26:46;;;;;;;4.05;1.70;;;2.30;99.90;;;1.86;92.40;103027.34;5026276;28;20107;-62
2021/04/16 02:29:15;;;;;;;3.05;1.67;;;2.30;99.90;;;1.79;93.07;103030.41;5006373;28;20033;-62
2021/04/16 02:31:44;;;;;;;2.60;1.75;;;2.30;99.90;;;1.73;92.66;103036.13;5018455;28;20073;-62
2021/04/16 02:34:24;;;;;;;1.88;1.58;;;2.30;99.90;;;1.66;92.85;103034.75;5023197;28;20033;-64
2021/04/16 02:36:56;;;;;;;1.40;1.20;;;2.20;99.90;;;1.71;93.18;103035.34;5015170;28;20038;-62
2021/04/16 02:39:23;;;;;;;4.53;1.77;;;2.10;99.90;;;1.65;93.55;103024.13;5015938;28;20034;-64
2021/04/16 02:41:49;;;;;;;2.83;1.52;;;2.10;99.90;;;1.62;93.94;103037.69;5024215;28;20062;-62
2021/04/16 02:44:16;;;;;;;1.80;1.60;;;2.00;99.90;;;1.59;93.76;103032.50;5017078;28;20041;-63
2021/04/16 02:46:42;;;;;;;4.70;1.90;;;2.00;99.90;;;1.53;94.73;103027.50;5021799;28;20500;-65
2021/04/16 02:49:08;;;;;;;3.10;1.63;;;2.00;99.90;;;1.67;93.87;103028.44;5020962;28;20073;-61
2021/04/16 02:51:34;;;;;;;2.90;1.98;;;2.00;99.90;;;1.57;94.26;103019.19;5002032;28;20072;-61
2021/04/16 02:54:00;;;;;;;2.33;1.75;;;2.00;99.90;;;1.54;94.49;103021.19;5025415;28;20058;-62
2021/04/16 02:56:27;;;;;;;2.47;1.65;;;2.00;99.90;;;1.61;94.68;103031.47;5010081;28;20391;-62
2021/04/16 02:58:54;;;;;;;2.40;1.70;;;1.90;99.90;;;1.68;93.86;103026.63;4979220;28;20190;-64
2021/04/16 03:01:20;;;;;;;1.38;1.10;;;2.00;99.90;;;1.71;93.40;103021.94;5023855;28;20413;-61
2021/04/16 03:03:45;;;;;;;2.22;1.63;;;2.00;99.90;;;1.60;93.96;103024.38;5016787;28;20084;-62
2021/04/16 03:06:11;;;;;;;3.47;1.30;;;2.00;99.90;;;1.73;94.46;103014.66;5001444;28;20172;-62
2021/04/16 03:08:38;;;;;;;2.35;1.90;;;1.90;99.90;;;1.75;94.97;103012.75;5006078;28;20038;-65
2021/04/16 03:11:07;;;;;;;1.77;1.35;;;1.90;99.90;;;1.75;94.83;103012.75;5003309;28;20034;-63
2021/04/16 03:13:33;;;;;;;4.65;2.20;;;1.90;99.90;;;1.84;94.21;103011.34;5017471;28;20125;-63
2021/04/16 03:16:00;;;;;;;6.28;2.03;;;1.80;99.90;;;1.73;94.46;103011.97;5020613;28;20041;-66
2021/04/16 03:18:26;;;;;;;2.72;1.70;;;1.90;99.90;;;1.80;94.11;103020.53;5025205;28;20037;-65
2021/04/16 03:20:52;;;;;;;2.33;2.13;;;2.00;99.90;;;1.74;95.13;103021.75;4992009;28;20531;-62
2021/04/16 03:23:18;;;;;;;3.95;1.73;;;2.00;99.90;;;1.87;94.24;103012.97;5013529;28;20032;-67
2021/04/16 03:25:44;;;;;;;3.13;1.58;;;2.00;99.90;;;1.79;94.75;103019.69;5016171;28;20042;-63
2021/04/16 03:28:11;;;;;;;2.67;1.90;;;2.00;99.90;;;1.83;94.60;103015.84;4974293;28;20409;-64
2021/04/16 03:30:37;;;;;;;2.63;1.80;;;2.00;99.90;;;1.89;94.37;103008.41;5011310;28;20091;-63
2021/04/16 03:33:03;;;;;;;4.03;1.90;;;2.00;99.90;;;1.74;95.22;103008.34;5019080;28;20492;-64
2021/04/16 03:35:29;;;;;;;4.78;1.83;;;2.00;99.90;;;1.74;94.95;103010.16;5015040;28;21095;-66
2021/04/16 03:37:56;;;;;;;1.65;1.42;;;2.10;99.90;;;1.69;94.97;103010.41;4993386;28;20033;-62
2021/04/16 03:40:26;;;;;;;4.85;2.08;;;2.10;99.90;;;1.58;95.51;103010.16;5019079;28;20048;-62
2021/04/16 03:42:52;;;;;;;2.83;1.80;;;2.10;99.90;;;1.59;96.26;103013.72;5016225;28;20451;-63
2021/04/16 03:45:19;;;;;;;2.55;1.48;;;2.00;99.90;;;1.55;96.26;103015.72;5011404;28;20063;-62
2021/04/16 03:47:46;;;;;;;2.30;1.77;;;2.00;99.90;;;1.50;96.75;103011.56;5019952;28;20040;-63
2021/04/16 03:50:18;;;;;;;2.38;1.83;;;2.00;99.90;;;1.52;96.38;103015.03;5010047;28;20496;-64
2021/04/16 03:52:43;;;;;;;2.97;1.90;;;1.90;99.90;;;1.44;96.71;103007.44;5011183;28;20052;-60
2021/04/16 03:55:10;;;;;;;3.40;2.10;;;1.90;99.90;;;1.50;97.47;103016.94;5013293;28;20045;-61
2021/04/16 03:57:36;;;;;;;3.20;1.92;;;1.90;99.90;;;1.61;96.41;103004.63;4997579;28;20391;-65
2021/04/16 04:00:06;;;;;;;1.52;1.40;;;1.90;99.90;;;1.74;95.80;103007.47;5004768;28;20121;-61
2021/04/16 04:02:32;;;;;;;2.83;2.10;;;1.90;99.90;;;1.59;96.49;103011.91;5020769;28;20041;-61
2021/04/16 04:04:58;;;;;;;2.08;1.67;;;1.90;99.90;;;1.65;96.47;103011.56;5010035;28;20033;-60
2021/04/16 04:07:23;;;;;;;3.78;1.75;;;1.90;99.90;;;1.59;96.64;103016.41;5010571;28;20073;-60
2021/04/16 04:09:49;;;;;;;2.10;1.65;;;2.00;99.90;;;1.49;97.67;103025.94;5016317;28;20543;-60
2021/04/16 04:12:15;;;;;;;4.68;2.13;;;1.90;99.90;;;1.43;97.83;103014.63;5002413;28;20059;-64
2021/04/16 04:14:41;;;;;;;6.07;1.85;;;1.90;99.90;;;1.59;98.65;103030.69;5003754;28;20037;-61
2021/04/16 04:17:07;;;;;;;2.60;1.92;;;1.90;99.90;;;1.65;97.85;103021.44;5016916;28;20144;-61
2021/04/16 04:19:35;;;;;;;5.72;2.08;;;1.90;99.90;;;1.69;97.36;103026.50;5015051;28;20125;-61
2021/04/16 04:22:03;;;;;;;7.72;1.98;;;1.90;99.90;;;1.81;97.37;103022.25;5001850;28;20042;-60
2021/04/16 04:24:29;;;;;;;11.35;2.47;;;2.00;99.90;;;1.83;97.25;103021.22;5012013;28;20100;-62
2021/04/16 04:26:56;;;;;;;3.80;1.92;;;2.00;99.90;;;1.91;96.45;103022.59;5012288;28;20582;-61
2021/04/16 04:29:25;;;;;;;6.03;1.98;;;2.10;99.90;;;1.85;96.74;103021.13;5022049;28;20056;-60
2021/04/16 04:31:51;;;;;;;2.72;1.98;;;2.10;99.90;;;1.72;97.15;103015.59;5025638;28;20104;-60
2021/04/16 04:34:24;;;;;;;2.45;2.00;;;2.10;99.90;;;1.80;96.98;103016.03;5021950;28;20037;-60
2021/04/16 04:36:54;;;;;;;4.22;1.50;;;2.10;99.90;;;1.93;97.37;103016.16;5011529;28;20445;-60
2021/04/16 04:39:22;;;;;;;4.53;1.85;;;2.10;99.90;;;1.87;96.63;103012.97;5010510;28;20037;-60
2021/04/16 04:41:48;;;;;;;2.50;1.95;;;2.20;99.90;;;1.93;96.79;103009.91;5029805;28;20060;-62
2021/04/16 04:44:15;;;;;;;4.13;1.98;;;2.10;99.90;;;1.89;97.66;103011.94;5006325;28;20067;-62
2021/04/16 04:46:41;;;;;;;4.38;2.30;;;2.20;99.90;;;1.80;97.94;103016.03;5013808;28;20050;-61
2021/04/16 04:49:08;;;;;;;2.97;2.00;;;2.20;99.90;;;1.85;97.79;103009.53;5012283;28;20029;-61
2021/04/16 04:51:36;;;;;;;2.67;1.80;;;2.20;99.90;;;1.88;98.01;103018.25;5016108;28;20449;-63
2021/04/16 04:54:02;;;;;;;4.30;1.92;;;2.20;99.90;;;2.00;97.62;103016.69;5009839;28;22135;-62
2021/04/16 04:56:28;;;;;;;2.95;1.90;;;2.20;99.90;;;1.94;97.50;103007.16;5016425;28;20500;-62
2021/04/16 04:58:54;;;;;;;5.65;2.38;;;2.30;99.90;;;1.96;97.94;103009.75;5002711;28;20046;-63
2021/04/16 05:01:20;;;;;;;5.03;2.08;;;2.30;99.90;;;2.01;98.09;103015.72;5013056;28;20500;-62
2021/04/16 05:03:46;;;;;;;6.65;2.03;;;2.40;99.90;;;2.11;97.20;103019.59;4980441;28;20061;-62
2021/04/16 05:06:12;;;;;;;4.30;2.15;;;2.40;99.90;;;2.11;97.29;103008.84;5011540;28;20575;-63
2021/04/16 05:08:38;;;;;;;3.78;2.08;;;2.40;99.90;;;2.18;96.92;103011.06;5015980;28;20045;-62
2021/04/16 05:11:05;;;;;;;3.95;2.00;;;2.50;99.90;;;2.30;97.04;103014.81;5026850;28;20037;-61
2021/04/16 05:13:31;;;;;;;7.38;2.42;;;2.50;99.90;;;2.35;96.89;103018.09;5010651;28;20045;-60
2021/04/16 05:15:57;;;;;;;5.07;2.45;;;2.60;99.90;;;2.41;96.77;103017.72;5019949;28;20061;-61
2021/04/16 05:18:23;;;;;;;8.10;2.47;;;2.70;99.90;;;2.62;96.84;103009.28;5004049;28;20072;-61
2021/04/16 05:20:49;;;;;;;5.00;2.03;;;2.80;99.90;;;2.93;96.54;103014.47;4996349;28;20142;-64
2021/04/16 05:23:15;;;;;;;3.53;1.95;;;2.90;99.90;;;3.94;96.59;103014.94;5019014;28;20069;-62
2021/04/16 05:25:41;;;;;;;4.00;2.33;;;3.40;99.90;;;5.38;92.09;103017.25;4999366;28;20037;-62
2021/04/16 05:28:07;;;;;;;4.53;3.40;;;4.30;99.90;;;7.10;87.78;103021.97;5011491;28;20045;-62
2021/04/16 05:30:33;;;;;;;3.40;2.15;;;5.30;99.90;;;8.25;80.87;103016.78;5008444;28;20038;-62
